Time;durP1;ratioP1;P1;durP2;ratioP2;P2;SDS_P1;SDS_P2;PMS_P1;PMS_P2;Temp;Humidity;BMP_temperature;BMP_pressure;BME280_temperature;BME280_humidity;BME280_pressure;Samples;Min_cycle;Max_cycle;Signal;HPM_P1;HPM_P2
2021/08/12 00:02:26;;;;;;;1999.90;999.90;;;;;;;19.76;80.16;95847.13;5111824;28;20195;-66
2021/08/12 00:04:53;;;;;;;1999.90;999.90;;;;;;;19.82;80.11;95852.91;5111760;28;20719;-66
2021/08/12 00:07:21;;;;;;;1999.90;999.90;;;;;;;19.81;80.28;95859.28;5111649;28;20690;-67
2021/08/12 00:09:49;;;;;;;1999.90;999.90;;;;;;;19.55;81.23;95856.41;5111809;28;20190;-66
2021/08/12 00:12:16;;;;;;;1999.90;999.90;;;;;;;19.35;82.22;95864.19;5111836;28;20195;-66
2021/08/12 00:14:45;;;;;;;1999.90;999.90;;;;;;;19.42;82.16;95850.44;5111211;28;20296;-67
2021/08/12 00:17:12;;;;;;;1999.90;999.90;;;;;;;19.31;83.60;95858.09;5111068;28;20215;-67
2021/08/12 00:19:39;;;;;;;1999.90;999.90;;;;;;;19.26;84.10;95860.19;5111451;28;20191;-66
2021/08/12 00:22:06;;;;;;;1999.90;999.90;;;;;;;19.44;83.04;95861.41;5111391;28;20299;-66
2021/08/12 00:24:34;;;;;;;1999.90;999.90;;;;;;;19.52;83.13;95865.00;5111781;28;20234;-66
2021/08/12 00:27:02;;;;;;;1999.90;999.90;;;;;;;19.55;82.71;95872.22;5111539;28;20191;-66
2021/08/12 00:29:29;;;;;;;1999.90;999.90;;;;;;;19.40;83.00;95871.09;5111291;28;20299;-66
2021/08/12 00:31:58;;;;;;;1999.90;999.90;;;;;;;19.56;82.48;95871.88;5111643;28;20201;-66
2021/08/12 00:34:25;;;;;;;1999.90;999.90;;;;;;;19.71;81.80;95875.63;5111373;28;20194;-66
2021/08/12 00:36:52;;;;;;;1999.90;999.90;;;;;;;19.73;81.67;95878.66;5111265;28;20219;-66
2021/08/12 00:39:20;;;;;;;1999.90;999.90;;;;;;;19.69;81.46;95878.59;5111454;28;20203;-66
2021/08/12 00:41:47;;;;;;;1999.90;999.90;;;;;;;19.68;81.47;95877.06;5110764;28;20249;-65
2021/08/12 00:44:14;;;;;;;1999.90;999.90;;;;;;;19.75;81.20;95879.88;5110944;28;20205;-66
2021/08/12 00:46:42;;;;;;;1999.90;999.90;;;;;;;19.63;81.67;95879.19;5110935;28;20203;-65
2021/08/12 00:49:10;;;;;;;1999.90;999.90;;;;;;;19.67;81.49;95875.53;5111149;28;20202;-65
2021/08/12 00:51:40;;;;;;;1999.90;999.90;;;;;;;19.75;81.16;95879.88;5111059;28;20298;-65
2021/08/12 00:54:08;;;;;;;1999.90;999.90;;;;;;;19.88;80.92;95874.47;5111053;28;20274;-65
2021/08/12 00:56:35;;;;;;;1999.90;999.90;;;;;;;19.80;81.09;95885.97;5110753;28;20655;-66
2021/08/12 00:59:03;;;;;;;1999.90;999.90;;;;;;;19.71;81.66;95883.53;5110528;28;20698;-66
2021/08/12 01:01:30;;;;;;;1999.90;999.90;;;;;;;19.83;81.21;95893.19;5104982;28;20214;-66
2021/08/12 01:04:00;;;;;;;1999.90;999.90;;;;;;;19.83;81.20;95890.56;5104701;28;20685;-66
2021/08/12 01:06:33;;;;;;;1999.90;999.90;;;;;;;19.80;81.50;95893.91;5110501;28;20666;-66
2021/08/12 01:09:04;;;;;;;1999.90;999.90;;;;;;;19.74;81.73;95888.88;5110758;28;20194;-66
2021/08/12 01:11:38;;;;;;;1999.90;999.90;;;;;;;19.79;81.33;95882.56;5110450;28;20201;-67
2021/08/12 01:14:16;;;;;;;1999.90;999.90;;;;;;;19.73;81.44;95884.72;5110904;28;20210;-66
2021/08/12 01:16:47;;;;;;;1999.90;999.90;;;;;;;19.69;80.85;95888.38;5110440;28;20201;-66
2021/08/12 01:19:47;;;;;;;1999.90;999.90;;;;;;;19.78;79.99;95887.09;5110300;28;20236;-66
2021/08/12 01:22:19;;;;;;;1999.90;999.90;;;;;;;19.87;78.62;95879.00;5068761;28;20206;-68
2021/08/12 01:24:50;;;;;;;1999.90;999.90;;;;;;;20.00;77.60;95884.94;5110205;28;20639;-67
2021/08/12 01:27:19;;;;;;;1999.90;999.90;;;;;;;20.03;77.35;95886.88;5109152;28;20187;-66
2021/08/12 01:29:53;;;;;;;1999.90;999.90;;;;;;;20.03;77.21;95881.59;5110241;28;20282;-66
2021/08/12 01:32:25;;;;;;;1999.90;999.90;;;;;;;20.06;76.77;95878.28;5110258;28;20644;-66
2021/08/12 01:35:12;;;;;;;1999.90;999.90;;;;;;;20.16;76.29;95880.41;5110181;28;20202;-66
2021/08/12 01:37:42;;;;;;;1999.90;999.90;;;;;;;20.14;76.13;95877.31;5110123;28;20744;-66
2021/08/12 01:40:12;;;;;;;1999.90;999.90;;;;;;;20.07;76.42;95882.47;5109684;28;20227;-66
2021/08/12 01:42:40;;;;;;;1999.90;999.90;;;;;;;20.03;76.72;95886.88;5109841;28;20184;-65
2021/08/12 01:45:08;;;;;;;1999.90;999.90;;;;;;;20.03;76.94;95879.72;5106582;28;20199;-65
2021/08/12 01:47:36;;;;;;;1999.90;999.90;;;;;;;20.09;76.98;95877.59;5110208;28;20573;-66
2021/08/12 01:50:05;;;;;;;1999.90;999.90;;;;;;;20.14;76.80;95878.09;5109452;28;20198;-66
2021/08/12 01:52:36;;;;;;;1999.90;999.90;;;;;;;20.15;76.55;95877.00;5109675;28;20206;-66
2021/08/12 01:55:06;;;;;;;1999.90;999.90;;;;;;;20.06;77.08;95880.94;5109708;28;20184;-65
2021/08/12 01:57:33;;;;;;;1999.90;999.90;;;;;;;20.08;77.03;95873.41;5109920;28;20219;-66
2021/08/12 02:00:03;;;;;;;1999.90;999.90;;;;;;;20.05;77.16;95874.88;5110078;28;20551;-66
2021/08/12 02:02:30;;;;;;;1999.90;999.90;;;;;;;20.10;77.38;95879.13;5107115;28;20195;-66
2021/08/12 02:05:00;;;;;;;1999.90;999.90;;;;;;;20.12;77.24;95875.03;5108948;28;21089;-65
2021/08/12 02:07:27;;;;;;;1999.90;999.90;;;;;;;20.15;77.15;95876.22;5108264;28;20187;-64
2021/08/12 02:09:56;;;;;;;1999.90;999.90;;;;;;;20.17;77.31;95871.38;5105549;28;20222;-66
2021/08/12 02:12:23;;;;;;;1999.90;999.90;;;;;;;20.18;77.47;95871.00;5102025;28;20697;-65
2021/08/12 02:14:50;;;;;;;1999.90;999.90;;;;;;;20.00;78.63;95872.50;5108811;28;20203;-64
2021/08/12 02:17:17;;;;;;;1999.90;999.90;;;;;;;19.40;81.96;95871.09;5109521;28;20223;-67
2021/08/12 02:19:45;;;;;;;1999.90;999.90;;;;;;;19.16;83.35;95871.25;5109340;28;20238;-65
2021/08/12 02:22:17;;;;;;;1999.90;999.90;;;;;;;18.96;84.28;95877.50;5108986;28;20679;-67
2021/08/12 02:24:54;;;;;;;1999.90;999.90;;;;;;;18.85;83.92;95877.97;5109003;28;20191;-64
2021/08/12 02:27:25;;;;;;;1999.90;999.90;;;;;;;18.78;84.28;95880.41;5109065;28;20196;-67
2021/08/12 02:29:54;;;;;;;1999.90;999.90;;;;;;;19.01;83.06;95880.66;5109210;28;20191;-67
2021/08/12 02:32:30;;;;;;;1999.90;999.90;;;;;;;18.74;84.15;95884.81;5109012;28;20198;-66
2021/08/12 02:34:59;;;;;;;1999.90;999.90;;;;;;;18.55;84.48;95886.53;5109065;28;20197;-64
2021/08/12 02:37:28;;;;;;;1999.90;999.90;;;;;;;18.27;86.07;95883.84;5109236;28;20223;-67
2021/08/12 02:39:55;;;;;;;1999.90;999.90;;;;;;;18.19;86.42;95882.09;5111876;28;20680;-67
2021/08/12 02:42:24;;;;;;;1999.90;999.90;;;;;;;18.20;86.65;95879.13;5113063;28;20334;-64
2021/08/12 02:44:53;;;;;;;1999.90;999.90;;;;;;;18.14;86.59;95877.81;5113410;28;20198;-65
2021/08/12 02:47:22;;;;;;;1999.90;999.90;;;;;;;18.24;86.15;95884.50;5113149;28;20202;-64
2021/08/12 02:49:52;;;;;;;1999.90;999.90;;;;;;;18.28;85.83;95885.38;5112714;28;20285;-64
2021/08/12 02:52:21;;;;;;;1999.90;999.90;;;;;;;18.20;85.50;95892.28;5112839;28;20665;-64
2021/08/12 02:54:50;;;;;;;1999.90;999.90;;;;;;;18.19;86.01;95898.66;5112854;28;20626;-64
2021/08/12 02:57:18;;;;;;;1999.90;999.90;;;;;;;18.24;86.04;95895.03;5113116;28;20203;-64
2021/08/12 02:59:48;;;;;;;1999.90;999.90;;;;;;;18.21;85.88;95908.84;5113364;28;20218;-64
2021/08/12 03:02:18;;;;;;;1999.90;999.90;;;;;;;18.12;86.34;95906.34;5112627;28;20558;-66
2021/08/12 03:04:45;;;;;;;1999.90;999.90;;;;;;;18.11;86.53;95901.41;5112714;28;20203;-63
2021/08/12 03:07:14;;;;;;;1999.90;999.90;;;;;;;18.13;86.30;95896.59;5112296;28;20191;-64
2021/08/12 03:09:43;;;;;;;1999.90;999.90;;;;;;;18.15;86.47;95897.00;5112710;28;20283;-64
2021/08/12 03:12:11;;;;;;;1999.90;999.90;;;;;;;18.14;86.35;95900.72;5109960;28;20211;-64
2021/08/12 03:14:39;;;;;;;1999.90;999.90;;;;;;;18.18;86.13;95906.88;5092460;28;20611;-63
2021/08/12 03:17:11;;;;;;;1999.90;999.90;;;;;;;18.19;85.41;95908.41;5092239;28;20225;-64
2021/08/12 03:19:39;;;;;;;1999.90;999.90;;;;;;;18.23;85.15;95906.66;5091996;28;20184;-63
2021/08/12 03:22:07;;;;;;;1999.90;999.90;;;;;;;18.12;85.42;95908.22;5091960;28;20196;-63
2021/08/12 03:24:36;;;;;;;1999.90;999.90;;;;;;;18.03;86.07;95900.44;5092112;28;20218;-64
2021/08/12 03:27:04;;;;;;;1999.90;999.90;;;;;;;17.97;85.94;95907.00;5092123;28;20615;-64
2021/08/12 03:29:32;;;;;;;1999.90;999.90;;;;;;;18.04;85.76;95902.72;5092040;28;20204;-64
2021/08/12 03:31:59;;;;;;;1999.90;999.90;;;;;;;18.01;85.90;95907.88;5090933;28;20206;-63
2021/08/12 03:34:28;;;;;;;1999.90;999.90;;;;;;;17.91;86.56;95909.09;5092086;28;20679;-62
2021/08/12 03:36:55;;;;;;;1999.90;999.90;;;;;;;17.92;86.55;95908.00;5092215;28;20227;-65
2021/08/12 03:39:22;;;;;;;1999.90;999.90;;;;;;;17.88;86.60;95901.84;5092360;28;20795;-64
2021/08/12 03:41:50;;;;;;;1999.90;999.90;;;;;;;17.84;87.56;95900.22;5100228;28;20223;-66
2021/08/12 03:44:18;;;;;;;1999.90;999.90;;;;;;;17.86;87.67;95905.91;5110531;28;20846;-67
2021/08/12 03:46:45;;;;;;;1999.90;999.90;;;;;;;17.79;88.07;95905.69;5111430;28;20202;-64
2021/08/12 03:49:12;;;;;;;1999.90;999.90;;;;;;;17.89;87.78;95907.88;5107154;27;20219;-63
2021/08/12 03:51:41;;;;;;;1999.90;999.90;;;;;;;17.99;87.17;95905.56;5120432;27;20293;-65
2021/08/12 03:54:08;;;;;;;1999.90;999.90;;;;;;;18.05;87.17;95900.84;5117294;27;20210;-62
2021/08/12 03:56:35;;;;;;;1999.90;999.90;;;;;;;18.08;87.14;95919.38;5131669;27;20203;-62
2021/08/12 03:59:03;;;;;;;1999.90;999.90;;;;;;;18.04;87.02;95913.25;5128716;27;20257;-63
2021/08/12 04:01:31;;;;;;;1999.90;999.90;;;;;;;18.00;87.12;95922.13;5110094;28;20225;-62
2021/08/12 04:03:58;;;;;;;1999.90;999.90;;;;;;;18.02;87.72;95918.09;5110203;28;20195;-63
2021/08/12 04:06:25;;;;;;;1999.90;999.90;;;;;;;18.12;87.19;95924.75;5110071;28;20195;-62
2021/08/12 04:08:54;;;;;;;1999.90;999.90;;;;;;;18.11;86.94;95925.09;5110100;28;20214;-62
2021/08/12 04:11:21;;;;;;;1999.90;999.90;;;;;;;18.04;87.15;95925.63;5110038;28;20697;-62
2021/08/12 04:13:48;;;;;;;1999.90;999.90;;;;;;;17.93;87.86;95927.19;5103305;28;20211;-62
2021/08/12 04:16:15;;;;;;;1999.90;999.90;;;;;;;18.08;87.34;95927.25;5091203;28;20675;-63
2021/08/12 04:18:42;;;;;;;1999.90;999.90;;;;;;;18.27;86.97;95925.94;5091027;28;20223;-62
2021/08/12 04:21:10;;;;;;;1999.90;999.90;;;;;;;18.69;85.74;95936.94;5091084;28;20196;-63
2021/08/12 04:23:37;;;;;;;1999.90;999.90;;;;;;;19.08;84.52;95932.78;5091265;28;20257;-63
2021/08/12 04:26:05;;;;;;;1999.90;999.90;;;;;;;19.49;83.00;95932.34;5090970;28;20286;-64
2021/08/12 04:28:33;;;;;;;1999.90;999.90;;;;;;;19.90;81.27;95930.31;5091017;28;20199;-63
2021/08/12 04:31:00;;;;;;;1999.90;999.90;;;;;;;20.21;79.98;95932.91;5090812;28;20287;-63
2021/08/12 04:33:29;;;;;;;1999.90;999.90;;;;;;;20.57;78.97;95931.84;5091107;28;20207;-63
2021/08/12 04:35:56;;;;;;;1999.90;999.90;;;;;;;20.74;78.47;95934.06;5090793;28;20196;-63
2021/08/12 04:38:25;;;;;;;1999.90;999.90;;;;;;;21.02;77.09;95941.78;5090992;28;20310;-63
2021/08/12 04:40:52;;;;;;;1999.90;999.90;;;;;;;21.36;75.38;95948.88;5098599;28;20231;-63
2021/08/12 04:43:21;;;;;;;1999.90;999.90;;;;;;;21.78;74.54;95945.41;5111064;28;20549;-64
2021/08/12 04:45:48;;;;;;;1999.90;999.90;;;;;;;21.97;73.06;95948.00;5131715;27;20228;-63
2021/08/12 04:48:16;;;;;;;1999.90;999.90;;;;;;;21.86;72.47;95963.72;5131427;27;20205;-63
2021/08/12 04:50:44;;;;;;;1999.90;999.90;;;;;;;21.60;73.95;95965.53;5131719;27;20212;-64
2021/08/12 04:53:11;;;;;;;1999.90;999.90;;;;;;;21.43;74.48;95970.13;5131305;27;20682;-63
2021/08/12 04:55:38;;;;;;;1999.90;999.90;;;;;;;21.54;73.03;95962.41;5131450;27;20202;-64
2021/08/12 04:58:06;;;;;;;1999.90;999.90;;;;;;;21.72;72.64;95966.09;5131772;27;20218;-63
2021/08/12 05:00:35;;;;;;;1999.90;999.90;;;;;;;21.84;71.13;95970.47;5131505;27;20657;-64
2021/08/12 05:03:02;;;;;;;1999.90;999.90;;;;;;;22.04;70.26;95968.53;5131140;27;20201;-63
2021/08/12 05:05:30;;;;;;;1999.90;999.90;;;;;;;22.17;69.43;95972.50;5131138;27;20720;-63
2021/08/12 05:07:57;;;;;;;1999.90;999.90;;;;;;;22.27;67.18;95967.38;5131074;27;20210;-63
2021/08/12 05:10:24;;;;;;;1999.90;999.90;;;;;;;22.20;66.93;95967.28;5131069;27;20666;-63
2021/08/12 05:12:52;;;;;;;1999.90;999.90;;;;;;;22.14;67.17;95963.41;5130940;27;20241;-63
2021/08/12 05:15:20;;;;;;;1999.90;999.90;;;;;;;22.08;68.00;95969.34;5131205;27;20221;-64
2021/08/12 05:17:48;;;;;;;1999.90;999.90;;;;;;;22.12;69.32;95964.88;5130760;27;20194;-62
2021/08/12 05:20:15;;;;;;;1999.90;999.90;;;;;;;22.29;69.98;95970.44;5130981;27;20682;-63
2021/08/12 05:22:42;;;;;;;1999.90;999.90;;;;;;;22.31;69.70;95983.34;5130765;27;20868;-64
2021/08/12 05:25:10;;;;;;;1999.90;999.90;;;;;;;22.46;70.16;95973.72;5130819;27;20195;-63
2021/08/12 05:27:37;;;;;;;1999.90;999.90;;;;;;;22.55;70.71;95974.22;5130570;27;20590;-64
2021/08/12 05:30:06;;;;;;;1999.90;999.90;;;;;;;22.54;71.68;95975.31;5130990;27;20277;-64
2021/08/12 05:32:33;;;;;;;1999.90;999.90;;;;;;;22.39;74.18;95978.88;5130524;27;20291;-63
2021/08/12 05:35:02;;;;;;;1999.90;999.90;;;;;;;22.53;75.39;95979.84;5130514;27;20196;-64
2021/08/12 05:37:29;;;;;;;1999.90;999.90;;;;;;;22.80;74.66;95983.28;5130621;27;20205;-64
2021/08/12 05:39:56;;;;;;;1999.90;999.90;;;;;;;22.74;74.41;95979.41;5129925;27;20226;-64
2021/08/12 05:42:23;;;;;;;1999.90;999.90;;;;;;;22.79;74.98;95981.75;5109734;28;20187;-64
2021/08/12 05:44:51;;;;;;;1999.90;999.90;;;;;;;22.89;75.40;95978.47;5109875;28;20209;-65
2021/08/12 05:47:18;;;;;;;1999.90;999.90;;;;;;;22.90;75.98;95981.88;5109802;28;20226;-65
2021/08/12 05:49:46;;;;;;;1999.90;999.90;;;;;;;22.85;74.57;95980.31;5106967;28;20293;-64
2021/08/12 05:52:14;;;;;;;1999.90;999.90;;;;;;;23.02;73.10;95982.41;5110038;28;20199;-64
2021/08/12 05:54:42;;;;;;;1999.90;999.90;;;;;;;22.99;73.13;95993.75;5109836;28;20758;-64
2021/08/12 05:57:09;;;;;;;1999.90;999.90;;;;;;;23.01;74.51;95988.81;5109776;28;20198;-65
2021/08/12 05:59:36;;;;;;;1999.90;999.90;;;;;;;23.24;72.84;95985.31;5109535;28;20229;-64
2021/08/12 06:02:04;;;;;;;1999.90;999.90;;;;;;;23.48;72.14;95982.94;5109821;28;20298;-64
2021/08/12 06:04:31;;;;;;;1999.90;999.90;;;;;;;23.56;72.52;95989.84;5109838;28;20207;-64
2021/08/12 06:06:58;;;;;;;1999.90;999.90;;;;;;;23.80;71.79;95987.81;5109583;28;20271;-64
2021/08/12 06:09:27;;;;;;;1999.90;999.90;;;;;;;24.02;71.06;95987.59;5109550;28;20201;-64
2021/08/12 06:11:54;;;;;;;1999.90;999.90;;;;;;;24.29;69.00;95987.47;5109472;28;20195;-64
2021/08/12 06:14:21;;;;;;;1999.90;999.90;;;;;;;24.41;67.65;95987.16;5108815;28;20194;-64
2021/08/12 06:16:48;;;;;;;1999.90;999.90;;;;;;;24.70;66.70;95991.53;5109235;28;20202;-64
2021/08/12 06:19:15;;;;;;;1999.90;999.90;;;;;;;24.78;66.90;95985.09;5109304;28;20813;-64
2021/08/12 06:21:43;;;;;;;1999.90;999.90;;;;;;;25.05;65.57;95998.19;5109321;28;20195;-65
2021/08/12 06:24:14;;;;;;;1999.90;999.90;;;;;;;25.49;62.97;95990.72;5109332;28;20194;-65
2021/08/12 06:26:43;;;;;;;1999.90;999.90;;;;;;;25.86;59.51;95990.41;5109370;28;20548;-64
2021/08/12 06:29:11;;;;;;;1999.90;999.90;;;;;;;25.94;59.08;95991.97;5109741;28;20201;-64
2021/08/12 06:31:38;;;;;;;1999.90;999.90;;;;;;;25.86;60.36;95989.66;5109741;28;20203;-64
2021/08/12 06:34:05;;;;;;;1999.90;999.90;;;;;;;26.20;59.92;95996.16;5109385;28;20195;-64
2021/08/12 06:36:33;;;;;;;1999.90;999.90;;;;;;;26.36;57.00;95998.44;5109184;28;20191;-64
2021/08/12 06:39:00;;;;;;;1999.90;999.90;;;;;;;26.28;56.97;96002.25;5109141;28;20710;-65
2021/08/12 06:41:28;;;;;;;1999.90;999.90;;;;;;;26.35;57.13;96003.00;5108909;28;20226;-64
2021/08/12 06:43:56;;;;;;;1999.90;999.90;;;;;;;26.23;58.40;96006.06;5109483;28;20226;-65
2021/08/12 06:46:24;;;;;;;1999.90;999.90;;;;;;;26.34;56.79;95998.06;5109140;28;20199;-65
2021/08/12 06:48:51;;;;;;;1999.90;999.90;;;;;;;26.56;56.88;96002.97;5109389;28;20645;-65
2021/08/12 06:51:18;;;;;;;1999.90;999.90;;;;;;;26.57;56.04;96003.75;5109325;28;20195;-64
2021/08/12 06:53:47;;;;;;;1999.90;999.90;;;;;;;27.02;55.30;95996.03;5109060;28;20675;-64
2021/08/12 06:56:14;;;;;;;1999.90;999.90;;;;;;;27.16;56.61;95998.63;5108879;28;20245;-65
2021/08/12 06:58:41;;;;;;;1999.90;999.90;;;;;;;27.02;56.33;96004.03;5108934;28;20714;-64
2021/08/12 07:01:10;;;;;;;1999.90;999.90;;;;;;;27.16;54.63;95994.06;5109027;28;20679;-64
2021/08/12 07:03:37;;;;;;;1999.90;999.90;;;;;;;27.40;55.01;95995.84;5109253;28;20274;-64
2021/08/12 07:06:04;;;;;;;1999.90;999.90;;;;;;;27.50;53.63;95999.63;5109101;28;20663;-64
2021/08/12 07:08:32;;;;;;;1999.90;999.90;;;;;;;27.76;53.53;96001.78;5108927;28;20201;-64
2021/08/12 07:10:59;;;;;;;1999.90;999.90;;;;;;;27.91;53.99;95997.09;5109135;28;20196;-64
2021/08/12 07:13:26;;;;;;;1999.90;999.90;;;;;;;27.82;53.05;95997.53;5109143;28;20218;-64
2021/08/12 07:15:54;;;;;;;1999.90;999.90;;;;;;;27.95;52.75;95997.81;5108852;28;20201;-65
2021/08/12 07:18:22;;;;;;;1999.90;999.90;;;;;;;28.10;52.25;95999.22;5108770;28;20203;-64
2021/08/12 07:20:49;;;;;;;1999.90;999.90;;;;;;;28.29;52.25;95997.22;5108848;28;20689;-65
2021/08/12 07:23:16;;;;;;;1999.90;999.90;;;;;;;27.98;52.24;96001.63;5108751;28;20211;-64
2021/08/12 07:25:44;;;;;;;1999.90;999.90;;;;;;;28.00;52.18;95999.31;5110351;28;20582;-65
2021/08/12 07:28:12;;;;;;;1999.90;999.90;;;;;;;28.17;50.35;95998.44;5112535;28;20210;-63
2021/08/12 07:30:40;;;;;;;1999.90;999.90;;;;;;;28.33;51.85;96003.28;5112381;28;20191;-63
2021/08/12 07:33:07;;;;;;;1999.90;999.90;;;;;;;28.33;50.78;96001.38;5112783;28;20602;-64
2021/08/12 07:35:36;;;;;;;1999.90;999.90;;;;;;;28.47;52.11;96001.25;5112771;28;20195;-64
2021/08/12 07:38:05;;;;;;;1999.90;999.90;;;;;;;28.60;49.32;95996.91;5112345;28;20202;-64
2021/08/12 07:40:32;;;;;;;1999.90;999.90;;;;;;;28.64;49.85;95991.53;5112066;28;20234;-63
2021/08/12 07:42:59;;;;;;;1999.90;999.90;;;;;;;28.48;51.67;96002.00;5112323;28;20209;-64
2021/08/12 07:45:26;;;;;;;1999.90;999.90;;;;;;;28.62;51.05;95996.50;5110263;28;20200;-64
2021/08/12 07:47:54;;;;;;;1999.90;999.90;;;;;;;28.56;50.77;96000.78;5111634;28;20202;-64
2021/08/12 07:50:21;;;;;;;1999.90;999.90;;;;;;;28.86;50.14;95994.75;5112152;28;20701;-65
2021/08/12 07:52:54;;;;;;;1999.90;999.90;;;;;;;29.10;47.24;96002.50;5112542;28;20202;-65
2021/08/12 07:55:21;;;;;;;1999.90;999.90;;;;;;;29.63;45.70;95995.75;5112464;28;20659;-65
2021/08/12 07:57:50;;;;;;;1999.90;999.90;;;;;;;29.74;45.49;95999.00;5112292;28;20207;-65
2021/08/12 08:00:18;;;;;;;1999.90;999.90;;;;;;;29.87;42.96;96004.56;5112210;28;20223;-65
2021/08/12 08:02:47;;;;;;;1999.90;999.90;;;;;;;29.98;44.95;95999.09;5111963;28;20763;-66
2021/08/12 08:05:18;;;;;;;1999.90;999.90;;;;;;;29.93;44.67;95995.72;5112249;28;20206;-65
2021/08/12 08:07:45;;;;;;;1999.90;999.90;;;;;;;30.44;44.16;95998.34;5111840;28;20183;-64
2021/08/12 08:10:14;;;;;;;1999.90;999.90;;;;;;;30.48;42.90;95993.69;5111795;28;20616;-65
2021/08/12 08:12:42;;;;;;;1999.90;999.90;;;;;;;30.49;42.12;95995.19;5111680;28;20210;-65
2021/08/12 08:15:10;;;;;;;1999.90;999.90;;;;;;;30.75;42.68;95994.34;5111653;28;20202;-65
2021/08/12 08:17:37;;;;;;;1999.90;999.90;;;;;;;30.79;42.80;95985.03;5111962;28;20196;-65
2021/08/12 08:20:07;;;;;;;1999.90;999.90;;;;;;;31.01;41.98;95981.97;5111449;28;20215;-65
2021/08/12 08:22:36;;;;;;;1999.90;999.90;;;;;;;31.27;42.42;95986.44;5111721;28;20210;-65
2021/08/12 08:25:03;;;;;;;1999.90;999.90;;;;;;;31.21;41.90;95980.03;5111475;28;20735;-66
2021/08/12 08:27:32;;;;;;;1999.90;999.90;;;;;;;31.38;43.00;95978.16;5111610;28;20199;-66
2021/08/12 08:29:59;;;;;;;1999.90;999.90;;;;;;;31.56;41.60;95991.97;5111424;28;20764;-65
2021/08/12 08:32:27;;;;;;;1999.90;999.90;;;;;;;31.64;40.79;95977.22;5111310;28;20206;-65
2021/08/12 08:34:54;;;;;;;1999.90;999.90;;;;;;;31.54;41.34;95975.47;5111377;28;20205;-65
2021/08/12 08:37:22;;;;;;;1999.90;999.90;;;;;;;31.76;39.90;95978.50;5110985;28;20282;-65
2021/08/12 08:39:50;;;;;;;1999.90;999.90;;;;;;;31.45;42.78;95975.31;5111202;28;20292;-65
2021/08/12 08:42:17;;;;;;;1999.90;999.90;;;;;;;31.53;41.57;95972.03;5111181;28;20197;-64
2021/08/12 08:44:50;;;;;;;1999.90;999.90;;;;;;;31.86;41.25;95972.09;5111078;28;20203;-65
2021/08/12 08:47:19;;;;;;;1999.90;999.90;;;;;;;32.05;41.08;95968.56;5111058;28;20961;-65
2021/08/12 08:49:48;;;;;;;1999.90;999.90;;;;;;;32.14;39.57;95971.44;5110992;28;20191;-64
2021/08/12 08:52:15;;;;;;;1999.90;999.90;;;;;;;31.99;38.66;95970.25;5111351;28;20272;-65
2021/08/12 08:54:44;;;;;;;1999.90;999.90;;;;;;;32.04;39.51;95969.75;5110992;28;20193;-65
2021/08/12 08:57:11;;;;;;;1999.90;999.90;;;;;;;32.14;38.68;95973.38;5110823;28;20199;-64
2021/08/12 08:59:38;;;;;;;1999.90;999.90;;;;;;;32.20;38.46;95969.00;5110691;28;20219;-65
2021/08/12 09:02:08;;;;;;;1999.90;999.90;;;;;;;32.38;38.66;95974.72;5110796;28;20206;-65
2021/08/12 09:04:37;;;;;;;1999.90;999.90;;;;;;;32.89;37.93;95981.06;5111298;28;20199;-65
2021/08/12 09:07:05;;;;;;;1999.90;999.90;;;;;;;32.97;34.75;95976.25;5110580;28;20683;-65
2021/08/12 09:09:33;;;;;;;1999.90;999.90;;;;;;;32.96;36.23;95980.88;5110547;28;20655;-65
2021/08/12 09:12:01;;;;;;;1999.90;999.90;;;;;;;33.10;34.54;95963.56;5110893;28;20256;-65
2021/08/12 09:14:33;;;;;;;1999.90;999.90;;;;;;;33.58;36.86;95962.53;5110437;28;20207;-66
2021/08/12 09:17:00;;;;;;;1999.90;999.90;;;;;;;33.67;36.06;95958.06;5110440;28;20247;-66
2021/08/12 09:19:29;;;;;;;1999.90;999.90;;;;;;;33.52;34.35;95966.97;5110354;28;20219;-65
2021/08/12 09:21:59;;;;;;;1999.90;999.90;;;;;;;33.93;34.31;95964.16;5110330;28;20195;-65
2021/08/12 09:24:27;;;;;;;1999.90;999.90;;;;;;;34.16;34.00;95963.03;5110317;28;20183;-65
2021/08/12 09:26:54;;;;;;;1999.90;999.90;;;;;;;34.03;33.56;95965.00;5110335;28;20207;-66
2021/08/12 09:29:29;;;;;;;1999.90;999.90;;;;;;;33.68;32.48;95961.47;5110125;28;20281;-65
2021/08/12 09:31:58;;;;;;;1999.90;999.90;;;;;;;33.48;32.71;95958.22;5110413;28;20198;-65
2021/08/12 09:34:39;;;;;;;1999.90;999.90;;;;;;;33.19;33.86;95956.38;5110209;28;20740;-66
2021/08/12 09:37:09;;;;;;;1999.90;999.90;;;;;;;32.91;33.94;95957.16;5110576;28;20307;-66
2021/08/12 09:39:37;;;;;;;1999.90;999.90;;;;;;;33.09;33.94;95956.66;5109692;28;20732;-65
2021/08/12 09:42:05;;;;;;;1999.90;999.90;;;;;;;32.85;34.27;95961.56;5110347;28;20192;-66
2021/08/12 09:44:41;;;;;;;1999.90;999.90;;;;;;;32.64;35.58;95954.06;5109885;28;20570;-67
2021/08/12 09:47:10;;;;;;;1999.90;999.90;;;;;;;32.84;35.24;95962.72;5110048;28;20184;-65
2021/08/12 09:49:47;;;;;;;1999.90;999.90;;;;;;;32.69;34.36;95953.53;5109466;28;20218;-65
2021/08/12 09:52:27;;;;;;;1999.90;999.90;;;;;;;32.81;35.35;95952.81;5110136;28;20179;-65
2021/08/12 09:55:11;;;;;;;1999.90;999.90;;;;;;;32.94;35.20;95945.53;5106503;28;20195;-66
2021/08/12 09:57:44;;;;;;;1999.90;999.90;;;;;;;32.96;36.41;95951.25;5107840;28;20811;-65
2021/08/12 10:00:15;;;;;;;1999.90;999.90;;;;;;;32.97;35.98;95950.06;5109626;28;20207;-66
2021/08/12 10:02:42;;;;;;;1999.90;999.90;;;;;;;32.98;33.74;95958.91;5109626;28;20643;-66
2021/08/12 10:05:12;;;;;;;1999.90;999.90;;;;;;;32.89;32.77;95954.13;5109735;28;20248;-65
2021/08/12 10:07:42;;;;;;;1999.90;999.90;;;;;;;32.94;34.38;95944.75;5109623;28;20256;-67
2021/08/12 10:10:16;;;;;;;1999.90;999.90;;;;;;;33.06;33.42;95952.13;5110020;28;20210;-66
2021/08/12 10:12:47;;;;;;;1999.90;999.90;;;;;;;33.14;34.71;95948.78;5109686;28;20212;-66
2021/08/12 10:15:16;;;;;;;1999.90;999.90;;;;;;;33.08;33.85;95947.06;5109505;28;20179;-66
2021/08/12 10:17:44;;;;;;;1999.90;999.90;;;;;;;32.96;31.95;95940.47;5109711;28;20241;-65
2021/08/12 10:20:17;;;;;;;1999.90;999.90;;;;;;;32.97;31.29;95950.06;5109350;28;20225;-65
2021/08/12 10:22:47;;;;;;;1999.90;999.90;;;;;;;33.01;31.59;95945.34;5109690;28;20262;-66
2021/08/12 10:25:16;;;;;;;1999.90;999.90;;;;;;;33.39;30.35;95947.34;5109677;28;20542;-66
2021/08/12 10:27:45;;;;;;;1999.90;999.90;;;;;;;33.75;28.65;95947.78;5109472;28;20221;-66
2021/08/12 10:30:14;;;;;;;1999.90;999.90;;;;;;;33.90;27.42;95956.94;5109410;28;20199;-66
2021/08/12 10:32:47;;;;;;;1999.90;999.90;;;;;;;33.94;28.05;95965.66;5109524;28;20285;-66
2021/08/12 10:35:14;;;;;;;1999.90;999.90;;;;;;;33.70;29.86;95970.66;5109324;28;20200;-66
2021/08/12 10:37:42;;;;;;;1999.90;999.90;;;;;;;32.87;34.52;95964.59;5109175;28;20200;-65
2021/08/12 10:40:14;;;;;;;1999.90;999.90;;;;;;;32.24;36.63;95967.75;5108915;28;20272;-65
2021/08/12 10:42:46;;;;;;;1999.90;999.90;;;;;;;31.75;38.20;95968.91;5109112;28;20675;-66
2021/08/12 10:45:14;;;;;;;1999.90;999.90;;;;;;;31.68;38.17;95961.78;5109449;28;20194;-65
2021/08/12 10:47:44;;;;;;;1999.90;999.90;;;;;;;31.58;38.84;95958.13;5109427;28;20230;-65
2021/08/12 10:50:32;;;;;;;1999.90;999.90;;;;;;;31.72;38.46;95959.00;5109294;28;20206;-66
2021/08/12 10:53:21;;;;;;;1999.90;999.90;;;;;;;32.07;37.74;95960.09;5109150;28;20199;-66
2021/08/12 10:56:05;;;;;;;1999.90;999.90;;;;;;;32.44;36.83;95952.22;5109153;28;20522;-65
2021/08/12 10:58:36;;;;;;;1999.90;999.90;;;;;;;32.49;36.38;95953.66;5109193;28;20191;-65
2021/08/12 11:01:06;;;;;;;1999.90;999.90;;;;;;;32.37;36.56;95954.38;5112705;28;20244;-65
2021/08/12 11:03:53;;;;;;;1999.90;999.90;;;;;;;32.37;35.96;95955.13;5113666;28;20203;-66